MUGT/GAO METAR and TAF weather

Enter ICAO airport designator
Station Type Date Time Source
MUGT METAR 2018/08/13 17:51 UTC NOAA

MUGT 131751Z 06011KT 010V100 9999 SCT020 35/20 Q1015


Station Type Date Time Source
MUGT Decoded METAR 2018/08/13 17:51 UTC NOAA

Guantanamo, Oriente, Cuba (MUGT) 20-05N 075-09W 8M
Aug 13, 2018 - 01:51 PM EDT / 2018.08.13 1751 UTC
Wind: from the ENE (060 degrees) at 13 MPH (11 KT) (direction variable):0
Visibility: greater than 7 mile(s):0
Sky conditions: partly cloudy
Temperature: 95 F (35 C)
Heat index: 99.5 F (37.5 C):1
Dew Point: 68 F (20 C)
Relative Humidity: 41%
Pressure (altimeter): 29.97 in. Hg (1015 hPa)
ob: MUGT 131751Z 06011KT 010V100 9999 SCT020 35/20 Q1015
cycle: 18

Station Type Date Time Source
MUGT TAF 2009/09/04 04:30 UTC NOAA

MUGT 040430Z 0410/0424 VRB02KT 9000 SCT020
BECMG 0414/0416 16010KT


Example: see airport list